sensor_id;sensor_type;location;lat;lon;timestamp;pressure;altitude;pressure_sealevel;temperature;humidity
62946;BME280;52164;52.212;-1.010;2022-08-19T00:02:21;100249.76;;;19.52;73.51
62946;BME280;52164;52.212;-1.010;2022-08-19T00:04:47;100246.02;;;19.50;73.37
62946;BME280;52164;52.212;-1.010;2022-08-19T00:07:17;100247.45;;;19.50;73.59
62946;BME280;52164;52.212;-1.010;2022-08-19T00:09:42;100251.52;;;19.52;73.69
62946;BME280;52164;52.212;-1.010;2022-08-19T00:12:08;100254.41;;;19.53;73.78
62946;BME280;52164;52.212;-1.010;2022-08-19T00:14:33;100258.13;;;19.55;73.84
62946;BME280;52164;52.212;-1.010;2022-08-19T00:17:00;100255.55;;;19.57;73.76
62946;BME280;52164;52.212;-1.010;2022-08-19T00:19:26;100254.74;;;19.59;73.81
62946;BME280;52164;52.212;-1.010;2022-08-19T00:21:51;100251.80;;;19.60;73.83
62946;BME280;52164;52.212;-1.010;2022-08-19T00:24:17;100246.10;;;19.62;73.78
62946;BME280;52164;52.212;-1.010;2022-08-19T00:26:43;100241.73;;;19.62;73.85
62946;BME280;52164;52.212;-1.010;2022-08-19T00:29:09;100240.19;;;19.64;73.85
62946;BME280;52164;52.212;-1.010;2022-08-19T00:31:35;100242.81;;;19.66;73.77
62946;BME280;52164;52.212;-1.010;2022-08-19T00:34:01;100244.84;;;19.65;73.66
62946;BME280;52164;52.212;-1.010;2022-08-19T00:36:26;100245.48;;;19.63;73.76
62946;BME280;52164;52.212;-1.010;2022-08-19T00:38:53;100248.77;;;19.62;73.85
62946;BME280;52164;52.212;-1.010;2022-08-19T00:41:20;100252.86;;;19.60;73.78
62946;BME280;52164;52.212;-1.010;2022-08-19T00:44:19;100254.50;;;19.60;73.98
62946;BME280;52164;52.212;-1.010;2022-08-19T00:46:32;100254.80;;;19.61;74.00
62946;BME280;52164;52.212;-1.010;2022-08-19T00:48:58;100256.27;;;19.61;73.99
62946;BME280;52164;52.212;-1.010;2022-08-19T00:51:26;100256.63;;;19.61;74.07
62946;BME280;52164;52.212;-1.010;2022-08-19T00:53:53;100257.11;;;19.62;74.09
62946;BME280;52164;52.212;-1.010;2022-08-19T00:56:19;100254.13;;;19.64;74.02
62946;BME280;52164;52.212;-1.010;2022-08-19T00:58:44;100252.45;;;19.66;73.90
62946;BME280;52164;52.212;-1.010;2022-08-19T01:01:10;100250.42;;;19.66;73.84
62946;BME280;52164;52.212;-1.010;2022-08-19T01:03:35;100252.33;;;19.68;74.00
62946;BME280;52164;52.212;-1.010;2022-08-19T01:06:01;100251.05;;;19.68;73.90
62946;BME280;52164;52.212;-1.010;2022-08-19T01:08:27;100253.91;;;19.69;73.83
62946;BME280;52164;52.212;-1.010;2022-08-19T01:10:54;100253.70;;;19.66;73.74
62946;BME280;52164;52.212;-1.010;2022-08-19T01:13:21;100254.18;;;19.63;73.77
62946;BME280;52164;52.212;-1.010;2022-08-19T01:15:50;100258.52;;;19.63;73.85
62946;BME280;52164;52.212;-1.010;2022-08-19T01:18:17;100256.55;;;19.63;73.91
62946;BME280;52164;52.212;-1.010;2022-08-19T01:20:44;100255.29;;;19.62;73.80
62946;BME280;52164;52.212;-1.010;2022-08-19T01:23:10;100253.93;;;19.61;73.84
62946;BME280;52164;52.212;-1.010;2022-08-19T01:25:46;100254.04;;;19.58;73.79
62946;BME280;52164;52.212;-1.010;2022-08-19T01:28:16;100255.21;;;19.56;73.90
62946;BME280;52164;52.212;-1.010;2022-08-19T01:30:42;100256.08;;;19.52;73.98
62946;BME280;52164;52.212;-1.010;2022-08-19T01:33:08;100255.91;;;19.47;74.10
62946;BME280;52164;52.212;-1.010;2022-08-19T01:35:34;100258.45;;;19.43;74.16
62946;BME280;52164;52.212;-1.010;2022-08-19T01:38:02;100257.91;;;19.38;74.28
62946;BME280;52164;52.212;-1.010;2022-08-19T01:40:30;100258.80;;;19.34;74.50
62946;BME280;52164;52.212;-1.010;2022-08-19T01:42:56;100258.20;;;19.31;74.55
62946;BME280;52164;52.212;-1.010;2022-08-19T01:45:23;100258.71;;;19.27;74.59
62946;BME280;52164;52.212;-1.010;2022-08-19T01:47:48;100258.12;;;19.24;74.85
62946;BME280;52164;52.212;-1.010;2022-08-19T01:50:14;100253.15;;;19.22;74.91
62946;BME280;52164;52.212;-1.010;2022-08-19T01:52:41;100252.89;;;19.19;75.07
62946;BME280;52164;52.212;-1.010;2022-08-19T01:55:07;100251.92;;;19.16;75.26
62946;BME280;52164;52.212;-1.010;2022-08-19T01:57:33;100252.77;;;19.13;75.57
62946;BME280;52164;52.212;-1.010;2022-08-19T01:59:59;100251.65;;;19.09;75.88
62946;BME280;52164;52.212;-1.010;2022-08-19T02:02:25;100250.99;;;19.07;76.26
62946;BME280;52164;52.212;-1.010;2022-08-19T02:04:51;100249.58;;;19.07;76.13
62946;BME280;52164;52.212;-1.010;2022-08-19T02:07:18;100251.48;;;19.04;76.34
62946;BME280;52164;52.212;-1.010;2022-08-19T02:09:44;100255.70;;;19.03;76.40
62946;BME280;52164;52.212;-1.010;2022-08-19T02:12:09;100251.75;;;19.02;76.54
62946;BME280;52164;52.212;-1.010;2022-08-19T02:14:35;100253.20;;;19.02;76.53
62946;BME280;52164;52.212;-1.010;2022-08-19T02:17:00;100253.02;;;19.02;76.57
62946;BME280;52164;52.212;-1.010;2022-08-19T02:19:26;100259.38;;;19.01;76.50
62946;BME280;52164;52.212;-1.010;2022-08-19T02:21:52;100261.95;;;19.00;76.57
62946;BME280;52164;52.212;-1.010;2022-08-19T02:24:18;100260.52;;;18.99;76.49
62946;BME280;52164;52.212;-1.010;2022-08-19T02:26:43;100259.65;;;18.98;76.65
62946;BME280;52164;52.212;-1.010;2022-08-19T02:29:08;100264.35;;;18.98;76.81
62946;BME280;52164;52.212;-1.010;2022-08-19T02:31:34;100260.40;;;18.98;76.98
62946;BME280;52164;52.212;-1.010;2022-08-19T02:33:59;100262.33;;;18.99;77.08
62946;BME280;52164;52.212;-1.010;2022-08-19T02:36:25;100258.90;;;18.99;77.05
62946;BME280;52164;52.212;-1.010;2022-08-19T02:38:51;100259.48;;;18.98;77.05
62946;BME280;52164;52.212;-1.010;2022-08-19T02:41:18;100259.17;;;18.97;77.16
62946;BME280;52164;52.212;-1.010;2022-08-19T02:43:44;100263.12;;;18.98;77.37
62946;BME280;52164;52.212;-1.010;2022-08-19T02:46:11;100263.95;;;19.00;77.48
62946;BME280;52164;52.212;-1.010;2022-08-19T02:48:37;100265.73;;;19.01;77.37
62946;BME280;52164;52.212;-1.010;2022-08-19T02:51:02;100262.99;;;19.01;77.43
62946;BME280;52164;52.212;-1.010;2022-08-19T02:53:28;100264.17;;;19.04;77.56
62946;BME280;52164;52.212;-1.010;2022-08-19T02:55:54;100266.27;;;19.05;77.54
62946;BME280;52164;52.212;-1.010;2022-08-19T02:58:19;100268.20;;;19.07;77.55
62946;BME280;52164;52.212;-1.010;2022-08-19T03:00:47;100272.30;;;19.08;77.58
62946;BME280;52164;52.212;-1.010;2022-08-19T03:03:14;100270.92;;;19.07;77.56
62946;BME280;52164;52.212;-1.010;2022-08-19T03:05:39;100273.67;;;19.06;77.69
62946;BME280;52164;52.212;-1.010;2022-08-19T03:08:05;100273.48;;;19.05;77.84
62946;BME280;52164;52.212;-1.010;2022-08-19T03:10:32;100272.55;;;19.06;77.86
62946;BME280;52164;52.212;-1.010;2022-08-19T03:12:57;100272.54;;;19.07;77.84
62946;BME280;52164;52.212;-1.010;2022-08-19T03:15:23;100274.17;;;19.07;77.91
62946;BME280;52164;52.212;-1.010;2022-08-19T03:17:48;100271.92;;;19.04;78.07
62946;BME280;52164;52.212;-1.010;2022-08-19T03:20:13;100264.21;;;19.02;78.13
62946;BME280;52164;52.212;-1.010;2022-08-19T03:22:39;100264.27;;;19.01;78.31
62946;BME280;52164;52.212;-1.010;2022-08-19T03:25:04;100261.08;;;18.99;78.41
62946;BME280;52164;52.212;-1.010;2022-08-19T03:27:29;100262.33;;;18.99;78.44
62946;BME280;52164;52.212;-1.010;2022-08-19T03:29:55;100263.81;;;18.99;78.39
62946;BME280;52164;52.212;-1.010;2022-08-19T03:32:21;100263.67;;;18.97;78.34
62946;BME280;52164;52.212;-1.010;2022-08-19T03:34:47;100266.74;;;18.97;78.30
62946;BME280;52164;52.212;-1.010;2022-08-19T03:37:12;100270.02;;;18.97;78.08
62946;BME280;52164;52.212;-1.010;2022-08-19T03:39:38;100270.27;;;18.95;77.90
62946;BME280;52164;52.212;-1.010;2022-08-19T03:42:04;100270.34;;;18.94;77.71
62946;BME280;52164;52.212;-1.010;2022-08-19T03:44:30;100267.69;;;18.92;77.61
62946;BME280;52164;52.212;-1.010;2022-08-19T03:46:58;100271.04;;;18.90;77.32
62946;BME280;52164;52.212;-1.010;2022-08-19T03:49:25;100276.92;;;18.86;77.27
62946;BME280;52164;52.212;-1.010;2022-08-19T03:51:52;100280.85;;;18.82;77.18
62946;BME280;52164;52.212;-1.010;2022-08-19T03:54:19;100282.26;;;18.78;77.30
62946;BME280;52164;52.212;-1.010;2022-08-19T03:56:45;100283.98;;;18.75;77.30
62946;BME280;52164;52.212;-1.010;2022-08-19T03:59:12;100283.56;;;18.73;77.39
62946;BME280;52164;52.212;-1.010;2022-08-19T04:01:38;100284.85;;;18.72;77.22
62946;BME280;52164;52.212;-1.010;2022-08-19T04:04:04;100288.33;;;18.71;77.30
62946;BME280;52164;52.212;-1.010;2022-08-19T04:06:30;100288.36;;;18.70;77.24
62946;BME280;52164;52.212;-1.010;2022-08-19T04:08:58;100288.90;;;18.70;76.94
62946;BME280;52164;52.212;-1.010;2022-08-19T04:11:24;100288.05;;;18.69;77.01
62946;BME280;52164;52.212;-1.010;2022-08-19T04:13:51;100281.23;;;18.68;76.93
62946;BME280;52164;52.212;-1.010;2022-08-19T04:16:17;100283.55;;;18.68;77.13
62946;BME280;52164;52.212;-1.010;2022-08-19T04:18:43;100284.08;;;18.68;77.15
62946;BME280;52164;52.212;-1.010;2022-08-19T04:21:14;100282.84;;;18.68;77.08
62946;BME280;52164;52.212;-1.010;2022-08-19T04:23:40;100284.06;;;18.64;77.05
62946;BME280;52164;52.212;-1.010;2022-08-19T04:26:05;100286.64;;;18.62;77.11
62946;BME280;52164;52.212;-1.010;2022-08-19T04:28:30;100291.66;;;18.59;77.24
62946;BME280;52164;52.212;-1.010;2022-08-19T04:30:56;100300.61;;;18.56;77.17
62946;BME280;52164;52.212;-1.010;2022-08-19T04:33:23;100305.66;;;18.52;77.24
62946;BME280;52164;52.212;-1.010;2022-08-19T04:35:50;100312.30;;;18.48;77.33
62946;BME280;52164;52.212;-1.010;2022-08-19T04:38:16;100317.21;;;18.47;77.40
62946;BME280;52164;52.212;-1.010;2022-08-19T04:40:43;100315.15;;;18.44;77.38
62946;BME280;52164;52.212;-1.010;2022-08-19T04:43:29;100322.08;;;18.42;77.53
62946;BME280;52164;52.212;-1.010;2022-08-19T04:45:55;100322.66;;;18.41;77.44
62946;BME280;52164;52.212;-1.010;2022-08-19T04:48:20;100323.62;;;18.39;77.43
62946;BME280;52164;52.212;-1.010;2022-08-19T04:50:51;100327.23;;;18.39;77.39
62946;BME280;52164;52.212;-1.010;2022-08-19T04:53:24;100332.83;;;18.40;77.38
62946;BME280;52164;52.212;-1.010;2022-08-19T04:55:51;100335.05;;;18.38;77.57
62946;BME280;52164;52.212;-1.010;2022-08-19T04:58:17;100335.84;;;18.36;77.45
62946;BME280;52164;52.212;-1.010;2022-08-19T05:00:43;100337.95;;;18.33;77.42
62946;BME280;52164;52.212;-1.010;2022-08-19T05:03:08;100337.58;;;18.28;77.41
62946;BME280;52164;52.212;-1.010;2022-08-19T05:05:37;100337.58;;;18.23;77.59
62946;BME280;52164;52.212;-1.010;2022-08-19T05:08:03;100335.42;;;18.17;77.62
62946;BME280;52164;52.212;-1.010;2022-08-19T05:10:28;100335.97;;;18.11;77.70
62946;BME280;52164;52.212;-1.010;2022-08-19T05:12:55;100336.36;;;18.05;77.74
62946;BME280;52164;52.212;-1.010;2022-08-19T05:15:20;100338.70;;;18.00;77.89
62946;BME280;52164;52.212;-1.010;2022-08-19T05:17:46;100341.90;;;17.96;77.85
62946;BME280;52164;52.212;-1.010;2022-08-19T05:20:31;100346.35;;;17.93;78.05
62946;BME280;52164;52.212;-1.010;2022-08-19T05:23:18;100350.24;;;17.89;78.15
62946;BME280;52164;52.212;-1.010;2022-08-19T05:25:43;100359.52;;;17.86;77.99
62946;BME280;52164;52.212;-1.010;2022-08-19T05:28:09;100366.58;;;17.86;78.02
62946;BME280;52164;52.212;-1.010;2022-08-19T05:30:34;100373.80;;;17.86;78.04
62946;BME280;52164;52.212;-1.010;2022-08-19T05:33:00;100374.77;;;17.90;77.98
62946;BME280;52164;52.212;-1.010;2022-08-19T05:35:25;100376.58;;;17.96;78.02
62946;BME280;52164;52.212;-1.010;2022-08-19T05:37:50;100371.11;;;17.97;78.03
62946;BME280;52164;52.212;-1.010;2022-08-19T05:40:18;100363.17;;;17.97;78.13
62946;BME280;52164;52.212;-1.010;2022-08-19T05:42:43;100365.46;;;17.99;78.20
62946;BME280;52164;52.212;-1.010;2022-08-19T05:45:09;100371.91;;;18.00;78.01
62946;BME280;52164;52.212;-1.010;2022-08-19T05:47:34;100367.44;;;18.05;78.05
62946;BME280;52164;52.212;-1.010;2022-08-19T05:50:00;100364.16;;;18.10;77.87
62946;BME280;52164;52.212;-1.010;2022-08-19T05:52:27;100367.22;;;18.17;77.24
62946;BME280;52164;52.212;-1.010;2022-08-19T05:54:53;100366.45;;;18.18;77.65
62946;BME280;52164;52.212;-1.010;2022-08-19T05:57:20;100364.59;;;18.20;77.45
62946;BME280;52164;52.212;-1.010;2022-08-19T05:59:45;100366.80;;;18.24;77.26
62946;BME280;52164;52.212;-1.010;2022-08-19T06:02:13;100369.36;;;18.23;76.83
62946;BME280;52164;52.212;-1.010;2022-08-19T06:04:39;100373.06;;;18.21;76.92
62946;BME280;52164;52.212;-1.010;2022-08-19T06:07:07;100375.99;;;18.19;76.74
62946;BME280;52164;52.212;-1.010;2022-08-19T06:09:33;100379.91;;;18.21;76.73
62946;BME280;52164;52.212;-1.010;2022-08-19T06:11:58;100379.45;;;18.24;76.76
62946;BME280;52164;52.212;-1.010;2022-08-19T06:14:28;100380.13;;;18.25;76.61
62946;BME280;52164;52.212;-1.010;2022-08-19T06:16:53;100382.69;;;18.24;76.46
62946;BME280;52164;52.212;-1.010;2022-08-19T06:19:19;100381.66;;;18.22;76.49
62946;BME280;52164;52.212;-1.010;2022-08-19T06:21:46;100384.61;;;18.21;76.28
62946;BME280;52164;52.212;-1.010;2022-08-19T06:24:13;100383.33;;;18.21;76.22
62946;BME280;52164;52.212;-1.010;2022-08-19T06:26:40;100383.85;;;18.22;76.15
62946;BME280;52164;52.212;-1.010;2022-08-19T06:29:07;100383.52;;;18.21;76.13
62946;BME280;52164;52.212;-1.010;2022-08-19T06:31:34;100384.76;;;18.22;76.02
62946;BME280;52164;52.212;-1.010;2022-08-19T06:34:00;100389.23;;;18.23;75.97
62946;BME280;52164;52.212;-1.010;2022-08-19T06:36:30;100394.55;;;18.21;75.95
62946;BME280;52164;52.212;-1.010;2022-08-19T06:38:59;100394.42;;;18.19;75.96
62946;BME280;52164;52.212;-1.010;2022-08-19T06:41:25;100398.41;;;18.18;75.87
62946;BME280;52164;52.212;-1.010;2022-08-19T06:43:50;100402.55;;;18.19;76.03
62946;BME280;52164;52.212;-1.010;2022-08-19T06:46:16;100405.84;;;18.23;75.95
62946;BME280;52164;52.212;-1.010;2022-08-19T06:48:43;100412.45;;;18.25;75.67
62946;BME280;52164;52.212;-1.010;2022-08-19T06:51:09;100408.51;;;18.25;75.34
62946;BME280;52164;52.212;-1.010;2022-08-19T06:53:34;100406.71;;;18.29;75.13
62946;BME280;52164;52.212;-1.010;2022-08-19T06:56:00;100406.88;;;18.41;74.89
62946;BME280;52164;52.212;-1.010;2022-08-19T06:58:29;100407.34;;;18.59;74.70
62946;BME280;52164;52.212;-1.010;2022-08-19T07:00:58;100408.28;;;18.68;74.46
62946;BME280;52164;52.212;-1.010;2022-08-19T07:03:27;100412.00;;;18.65;74.06
62946;BME280;52164;52.212;-1.010;2022-08-19T07:05:53;100416.02;;;18.59;73.82
62946;BME280;52164;52.212;-1.010;2022-08-19T07:08:18;100422.37;;;18.58;73.52
62946;BME280;52164;52.212;-1.010;2022-08-19T07:10:44;100420.33;;;18.54;73.31
62946;BME280;52164;52.212;-1.010;2022-08-19T07:13:10;100422.85;;;18.49;73.23
62946;BME280;52164;52.212;-1.010;2022-08-19T07:15:36;100418.66;;;18.45;73.15
62946;BME280;52164;52.212;-1.010;2022-08-19T07:18:02;100425.48;;;18.46;72.95
62946;BME280;52164;52.212;-1.010;2022-08-19T07:20:28;100429.21;;;18.48;72.81
62946;BME280;52164;52.212;-1.010;2022-08-19T07:22:53;100432.85;;;18.42;72.77
62946;BME280;52164;52.212;-1.010;2022-08-19T07:25:18;100435.21;;;18.36;72.87
62946;BME280;52164;52.212;-1.010;2022-08-19T07:27:48;100437.59;;;18.30;72.77
62946;BME280;52164;52.212;-1.010;2022-08-19T07:30:13;100439.86;;;18.26;72.69
62946;BME280;52164;52.212;-1.010;2022-08-19T07:32:39;100445.55;;;18.29;72.60
62946;BME280;52164;52.212;-1.010;2022-08-19T07:35:04;100444.92;;;18.43;72.57
62946;BME280;52164;52.212;-1.010;2022-08-19T07:37:31;100444.21;;;18.47;72.38
62946;BME280;52164;52.212;-1.010;2022-08-19T07:39:56;100452.09;;;18.45;72.15
62946;BME280;52164;52.212;-1.010;2022-08-19T07:42:22;100452.29;;;18.39;71.93
62946;BME280;52164;52.212;-1.010;2022-08-19T07:44:48;100455.14;;;18.34;71.79
62946;BME280;52164;52.212;-1.010;2022-08-19T07:47:13;100451.40;;;18.33;71.48
62946;BME280;52164;52.212;-1.010;2022-08-19T07:49:40;100451.33;;;18.41;71.21
62946;BME280;52164;52.212;-1.010;2022-08-19T07:52:06;100455.23;;;18.42;70.97
62946;BME280;52164;52.212;-1.010;2022-08-19T07:54:33;100458.71;;;18.30;70.75
62946;BME280;52164;52.212;-1.010;2022-08-19T07:57:00;100462.31;;;18.20;70.52
62946;BME280;52164;52.212;-1.010;2022-08-19T07:59:26;100463.30;;;18.17;70.23
62946;BME280;52164;52.212;-1.010;2022-08-19T08:01:53;100468.40;;;18.15;69.74
62946;BME280;52164;52.212;-1.010;2022-08-19T08:04:19;100467.75;;;18.13;68.75
62946;BME280;52164;52.212;-1.010;2022-08-19T08:07:05;100467.41;;;18.12;67.93
62946;BME280;52164;52.212;-1.010;2022-08-19T08:09:51;100468.98;;;18.08;67.63
62946;BME280;52164;52.212;-1.010;2022-08-19T08:12:19;100473.84;;;18.09;67.28
62946;BME280;52164;52.212;-1.010;2022-08-19T08:14:46;100479.92;;;18.11;66.07
62946;BME280;52164;52.212;-1.010;2022-08-19T08:17:13;100474.92;;;18.08;65.67
62946;BME280;52164;52.212;-1.010;2022-08-19T08:19:40;100478.92;;;18.08;64.99
62946;BME280;52164;52.212;-1.010;2022-08-19T08:22:06;100485.75;;;18.09;65.14
62946;BME280;52164;52.212;-1.010;2022-08-19T08:24:32;100485.57;;;18.09;64.66
62946;BME280;52164;52.212;-1.010;2022-08-19T08:26:59;100491.02;;;18.14;64.56
62946;BME280;52164;52.212;-1.010;2022-08-19T08:29:26;100492.95;;;18.16;64.30
62946;BME280;52164;52.212;-1.010;2022-08-19T08:31:52;100488.56;;;18.18;63.65
62946;BME280;52164;52.212;-1.010;2022-08-19T08:34:18;100482.94;;;18.19;63.59
62946;BME280;52164;52.212;-1.010;2022-08-19T08:36:44;100482.28;;;18.22;63.08
62946;BME280;52164;52.212;-1.010;2022-08-19T08:39:12;100485.73;;;18.27;62.87
62946;BME280;52164;52.212;-1.010;2022-08-19T08:41:42;100488.25;;;18.33;62.71
62946;BME280;52164;52.212;-1.010;2022-08-19T08:44:13;100488.67;;;18.37;61.50
62946;BME280;52164;52.212;-1.010;2022-08-19T08:46:41;100489.67;;;18.39;60.80
62946;BME280;52164;52.212;-1.010;2022-08-19T08:49:17;100498.84;;;18.40;60.03
62946;BME280;52164;52.212;-1.010;2022-08-19T08:51:48;100502.20;;;18.43;59.53
62946;BME280;52164;52.212;-1.010;2022-08-19T08:54:18;100503.73;;;18.46;59.94
62946;BME280;52164;52.212;-1.010;2022-08-19T08:56:44;100497.17;;;18.47;59.06
62946;BME280;52164;52.212;-1.010;2022-08-19T08:59:20;100492.63;;;18.48;58.83
62946;BME280;52164;52.212;-1.010;2022-08-19T09:01:47;100496.40;;;18.54;58.24
62946;BME280;52164;52.212;-1.010;2022-08-19T09:04:13;100501.36;;;18.57;58.15
62946;BME280;52164;52.212;-1.010;2022-08-19T09:06:57;100500.58;;;18.59;57.98
62946;BME280;52164;52.212;-1.010;2022-08-19T09:09:32;100499.99;;;18.61;57.71
62946;BME280;52164;52.212;-1.010;2022-08-19T09:15:32;100494.27;;;18.75;57.45
62946;BME280;52164;52.212;-1.010;2022-08-19T09:17:11;100499.64;;;18.81;56.84
62946;BME280;52164;52.212;-1.010;2022-08-19T09:20:18;100499.58;;;18.90;56.78
62946;BME280;52164;52.212;-1.010;2022-08-19T09:22:22;100504.02;;;18.97;56.37
62946;BME280;52164;52.212;-1.010;2022-08-19T09:24:49;100502.65;;;19.06;56.17
62946;BME280;52164;52.212;-1.010;2022-08-19T09:27:17;100499.49;;;19.13;55.56
62946;BME280;52164;52.212;-1.010;2022-08-19T09:29:43;100499.98;;;19.19;55.55
62946;BME280;52164;52.212;-1.010;2022-08-19T09:32:08;100503.17;;;19.22;54.53
62946;BME280;52164;52.212;-1.010;2022-08-19T09:34:33;100503.84;;;19.23;54.47
62946;BME280;52164;52.212;-1.010;2022-08-19T09:36:59;100495.77;;;19.26;53.85
62946;BME280;52164;52.212;-1.010;2022-08-19T09:39:25;100501.52;;;19.28;52.59
62946;BME280;52164;52.212;-1.010;2022-08-19T09:41:50;100496.95;;;19.28;51.83
62946;BME280;52164;52.212;-1.010;2022-08-19T09:44:16;100507.15;;;19.32;51.89
62946;BME280;52164;52.212;-1.010;2022-08-19T09:46:41;100514.69;;;19.33;51.47
62946;BME280;52164;52.212;-1.010;2022-08-19T09:49:07;100508.84;;;19.34;49.91
62946;BME280;52164;52.212;-1.010;2022-08-19T09:51:32;100510.15;;;19.33;49.47
62946;BME280;52164;52.212;-1.010;2022-08-19T09:54:00;100510.56;;;19.37;49.66
62946;BME280;52164;52.212;-1.010;2022-08-19T09:56:26;100512.40;;;19.42;49.27
62946;BME280;52164;52.212;-1.010;2022-08-19T09:58:52;100512.66;;;19.45;49.31
62946;BME280;52164;52.212;-1.010;2022-08-19T10:01:20;100509.73;;;19.50;48.93
62946;BME280;52164;52.212;-1.010;2022-08-19T10:03:47;100500.11;;;19.56;48.21
62946;BME280;52164;52.212;-1.010;2022-08-19T10:06:13;100499.56;;;19.65;48.15
62946;BME280;52164;52.212;-1.010;2022-08-19T10:08:39;100510.35;;;19.73;47.59
62946;BME280;52164;52.212;-1.010;2022-08-19T10:11:05;100508.11;;;19.74;47.03
62946;BME280;52164;52.212;-1.010;2022-08-19T10:13:31;100509.58;;;19.79;47.51
62946;BME280;52164;52.212;-1.010;2022-08-19T10:16:03;100506.66;;;19.85;47.24
62946;BME280;52164;52.212;-1.010;2022-08-19T10:18:29;100505.16;;;19.91;46.27
62946;BME280;52164;52.212;-1.010;2022-08-19T10:21:02;100502.33;;;19.94;46.59
62946;BME280;52164;52.212;-1.010;2022-08-19T10:23:27;100504.70;;;19.98;45.56
62946;BME280;52164;52.212;-1.010;2022-08-19T10:25:58;100503.63;;;20.02;45.05
62946;BME280;52164;52.212;-1.010;2022-08-19T10:28:24;100505.43;;;20.07;45.00
62946;BME280;52164;52.212;-1.010;2022-08-19T10:30:49;100505.95;;;20.12;45.18
62946;BME280;52164;52.212;-1.010;2022-08-19T10:33:15;100509.02;;;20.17;45.67
62946;BME280;52164;52.212;-1.010;2022-08-19T10:35:40;100509.30;;;20.23;45.52
62946;BME280;52164;52.212;-1.010;2022-08-19T10:38:05;100512.93;;;20.28;45.30
62946;BME280;52164;52.212;-1.010;2022-08-19T10:40:31;100520.70;;;20.33;44.87
62946;BME280;52164;52.212;-1.010;2022-08-19T10:42:56;100518.70;;;20.33;44.75
62946;BME280;52164;52.212;-1.010;2022-08-19T10:45:22;100522.17;;;20.32;44.73
62946;BME280;52164;52.212;-1.010;2022-08-19T10:47:50;100514.89;;;20.33;44.94
62946;BME280;52164;52.212;-1.010;2022-08-19T10:50:15;100521.13;;;20.40;44.91
62946;BME280;52164;52.212;-1.010;2022-08-19T10:53:03;100522.73;;;20.45;44.53
62946;BME280;52164;52.212;-1.010;2022-08-19T10:55:29;100518.67;;;20.52;44.42
62946;BME280;52164;52.212;-1.010;2022-08-19T10:58:15;100522.93;;;20.63;44.24
62946;BME280;52164;52.212;-1.010;2022-08-19T11:00:41;100524.42;;;20.71;44.12
62946;BME280;52164;52.212;-1.010;2022-08-19T11:03:08;100524.08;;;20.84;44.21
62946;BME280;52164;52.212;-1.010;2022-08-19T11:05:33;100520.17;;;20.86;44.07
62946;BME280;52164;52.212;-1.010;2022-08-19T11:07:58;100518.88;;;20.96;44.21
62946;BME280;52164;52.212;-1.010;2022-08-19T11:10:24;100517.16;;;21.18;44.34
62946;BME280;52164;52.212;-1.010;2022-08-19T11:12:49;100512.62;;;21.39;44.04
62946;BME280;52164;52.212;-1.010;2022-08-19T11:15:19;100515.41;;;21.66;42.99
62946;BME280;52164;52.212;-1.010;2022-08-19T11:17:44;100513.96;;;21.77;43.02
62946;BME280;52164;52.212;-1.010;2022-08-19T11:20:11;100507.65;;;21.92;42.88
62946;BME280;52164;52.212;-1.010;2022-08-19T11:22:37;100517.20;;;22.09;43.09
62946;BME280;52164;52.212;-1.010;2022-08-19T11:25:03;100520.20;;;22.23;42.40
62946;BME280;52164;52.212;-1.010;2022-08-19T11:27:29;100511.03;;;22.32;42.08
62946;BME280;52164;52.212;-1.010;2022-08-19T11:29:54;100504.88;;;22.47;41.48
62946;BME280;52164;52.212;-1.010;2022-08-19T11:32:19;100507.44;;;22.50;41.33
62946;BME280;52164;52.212;-1.010;2022-08-19T11:34:45;100502.89;;;22.54;41.30
62946;BME280;52164;52.212;-1.010;2022-08-19T11:37:10;100498.79;;;22.73;41.22
62946;BME280;52164;52.212;-1.010;2022-08-19T11:39:36;100495.98;;;22.93;41.36
62946;BME280;52164;52.212;-1.010;2022-08-19T11:42:03;100504.78;;;23.06;41.24
62946;BME280;52164;52.212;-1.010;2022-08-19T11:44:48;100507.71;;;23.20;40.71
62946;BME280;52164;52.212;-1.010;2022-08-19T11:47:14;100508.30;;;23.16;40.38
62946;BME280;52164;52.212;-1.010;2022-08-19T11:49:40;100509.59;;;23.16;40.53
62946;BME280;52164;52.212;-1.010;2022-08-19T11:52:05;100505.44;;;23.18;39.73
62946;BME280;52164;52.212;-1.010;2022-08-19T11:54:30;100504.48;;;23.13;39.30
62946;BME280;52164;52.212;-1.010;2022-08-19T11:56:56;100501.87;;;23.17;39.74
62946;BME280;52164;52.212;-1.010;2022-08-19T11:59:21;100497.36;;;23.27;39.43
62946;BME280;52164;52.212;-1.010;2022-08-19T12:01:46;100503.77;;;23.33;39.33
62946;BME280;52164;52.212;-1.010;2022-08-19T12:04:12;100509.92;;;23.41;39.46
62946;BME280;52164;52.212;-1.010;2022-08-19T12:06:38;100510.30;;;23.44;39.14
62946;BME280;52164;52.212;-1.010;2022-08-19T12:09:04;100516.45;;;23.51;38.93
62946;BME280;52164;52.212;-1.010;2022-08-19T12:11:30;100519.56;;;23.47;37.83
62946;BME280;52164;52.212;-1.010;2022-08-19T12:13:56;100519.77;;;23.16;37.59
62946;BME280;52164;52.212;-1.010;2022-08-19T12:16:23;100510.30;;;22.84;38.54
62946;BME280;52164;52.212;-1.010;2022-08-19T12:18:49;100510.86;;;22.87;38.65
62946;BME280;52164;52.212;-1.010;2022-08-19T12:21:17;100509.64;;;22.86;38.41
62946;BME280;52164;52.212;-1.010;2022-08-19T12:23:43;100501.27;;;22.90;38.64
62946;BME280;52164;52.212;-1.010;2022-08-19T12:26:10;100495.31;;;22.99;38.61
62946;BME280;52164;52.212;-1.010;2022-08-19T12:28:35;100498.45;;;23.16;38.49
62946;BME280;52164;52.212;-1.010;2022-08-19T12:31:01;100501.20;;;23.37;38.36
62946;BME280;52164;52.212;-1.010;2022-08-19T12:33:26;100500.20;;;23.62;38.32
62946;BME280;52164;52.212;-1.010;2022-08-19T12:35:53;100506.91;;;23.83;37.85
62946;BME280;52164;52.212;-1.010;2022-08-19T12:38:19;100505.04;;;23.94;37.71
62946;BME280;52164;52.212;-1.010;2022-08-19T12:40:45;100507.34;;;24.05;37.55
62946;BME280;52164;52.212;-1.010;2022-08-19T12:43:11;100510.32;;;24.14;37.09